createdAt,value
2023-05-08T00:02:05.105Z,48.03
2023-05-08T00:07:07.887Z,48.23
2023-05-08T00:12:10.656Z,48.40
2023-05-08T00:17:14.954Z,48.54
2023-05-08T00:22:17.739Z,48.72
2023-05-08T00:27:20.703Z,48.87
2023-05-08T00:32:24.982Z,49.15
2023-05-08T00:37:28.575Z,49.14
2023-05-08T00:42:31.368Z,49.42
2023-05-08T00:47:35.519Z,49.68
2023-05-08T00:52:38.316Z,49.48
2023-05-08T00:57:41.217Z,49.58
2023-05-08T01:02:45.511Z,49.97
2023-05-08T01:07:48.540Z,50.06
2023-05-08T01:12:57.656Z,50.25
2023-05-08T01:18:05.949Z,50.40
2023-05-08T01:23:41.912Z,50.65
2023-05-08T01:29:07.853Z,50.61
2023-05-08T01:34:15.393Z,51.14
2023-05-08T01:39:19.915Z,51.30
2023-05-08T01:44:23.068Z,51.52
2023-05-08T01:49:28.562Z,51.67
2023-05-08T01:54:37.367Z,51.68
2023-05-08T01:59:42.988Z,51.91
2023-05-08T02:04:48.017Z,52.06
2023-05-08T02:09:50.820Z,52.23
2023-05-08T02:14:54.177Z,52.23
2023-05-08T02:19:58.756Z,52.22
2023-05-08T02:25:01.541Z,52.24
2023-05-08T02:30:04.837Z,52.42
2023-05-08T02:35:10.021Z,52.58
2023-05-08T02:40:14.027Z,52.75
2023-05-08T02:45:17.028Z,53.04
2023-05-08T02:50:24.725Z,53.17
2023-05-08T02:55:34.196Z,53.40
2023-05-08T03:00:44.747Z,53.33
2023-05-08T03:05:52.674Z,53.45
2023-05-08T03:10:56.625Z,53.59
2023-05-08T03:16:01.269Z,53.87
2023-05-08T03:21:05.791Z,53.92
2023-05-08T03:26:08.626Z,53.87
2023-05-08T03:31:12.583Z,53.24
2023-05-08T03:36:17.050Z,52.63
2023-05-08T03:41:19.912Z,52.27
2023-05-08T03:46:23.539Z,51.95
2023-05-08T03:51:28.842Z,52.28
2023-05-08T03:56:31.964Z,52.24
2023-05-08T04:01:40.468Z,52.33
2023-05-08T04:06:51.893Z,52.44
2023-05-08T04:12:06.174Z,52.41
2023-05-08T04:17:11.769Z,52.47
2023-05-08T04:22:16.028Z,52.40
2023-05-08T04:27:18.881Z,52.57
2023-05-08T04:32:21.936Z,52.33
2023-05-08T04:37:27.075Z,52.34
2023-05-08T04:42:31.527Z,52.40
2023-05-08T04:47:36.535Z,52.51
2023-05-08T04:52:41.408Z,52.28
2023-05-08T04:57:44.519Z,52.49
2023-05-08T05:02:47.901Z,52.29
2023-05-08T05:07:52.138Z,52.39
2023-05-08T05:12:56.420Z,52.40
2023-05-08T05:17:59.496Z,52.17
2023-05-08T05:23:03.909Z,52.08
2023-05-08T05:28:07.332Z,52.39
2023-05-08T05:33:10.259Z,52.19
2023-05-08T05:38:14.698Z,52.15
2023-05-08T05:43:17.732Z,52.09
2023-05-08T05:48:21.439Z,51.94
2023-05-08T05:53:26.033Z,52.02
2023-05-08T05:58:29.443Z,51.90
2023-05-08T06:03:32.888Z,51.65
2023-05-08T06:08:37.145Z,51.91
2023-05-08T06:13:40.854Z,51.56
2023-05-08T06:18:44.092Z,51.00
2023-05-08T06:23:48.354Z,50.47
2023-05-08T06:28:51.159Z,49.50
2023-05-08T06:33:53.964Z,49.47
2023-05-08T06:38:58.161Z,48.89
2023-05-08T06:44:01.008Z,48.50
2023-05-08T06:49:03.895Z,48.43
2023-05-08T06:54:08.645Z,48.36
2023-05-08T06:59:11.596Z,48.16
2023-05-08T07:04:14.515Z,48.10
2023-05-08T07:09:18.708Z,48.10
2023-05-08T07:14:21.501Z,47.82
2023-05-08T07:19:24.898Z,47.68
2023-05-08T07:24:29.077Z,47.61
2023-05-08T07:29:31.896Z,47.54
2023-05-08T07:34:34.926Z,47.42
2023-05-08T07:39:39.197Z,47.52
2023-05-08T07:44:53.869Z,47.63
2023-05-08T07:49:57.849Z,47.55
2023-05-08T07:55:01.965Z,47.35
2023-05-08T08:00:05.640Z,47.74
2023-05-08T08:05:16.354Z,47.51
2023-05-08T08:10:20.789Z,47.29
2023-05-08T08:15:23.679Z,47.19
2023-05-08T08:20:26.531Z,42.14
2023-05-08T08:25:30.859Z,40.72
2023-05-08T08:30:33.701Z,39.12
2023-05-08T08:35:36.741Z,39.00
2023-05-08T08:40:44.041Z,39.58
2023-05-08T08:45:47.219Z,39.11
2023-05-08T08:50:50.006Z,39.52
2023-05-08T08:55:55.628Z,40.15
2023-05-08T09:00:58.511Z,39.90
2023-05-08T09:06:01.928Z,39.89
2023-05-08T09:11:06.580Z,39.35
2023-05-08T09:16:09.437Z,39.60
2023-05-08T09:21:12.541Z,40.14
2023-05-08T09:26:27.951Z,40.57
2023-05-08T09:31:35.845Z,40.29
2023-05-08T09:36:40.246Z,40.66
2023-05-08T09:41:57.666Z,40.37
2023-05-08T09:47:12.768Z,40.61
2023-05-08T09:52:16.754Z,40.68
2023-05-08T09:57:21.597Z,40.25
2023-05-08T10:02:24.584Z,40.21
2023-05-08T10:07:31.523Z,40.28
2023-05-08T10:12:38.077Z,40.00
2023-05-08T10:17:43.662Z,40.15
2023-05-08T10:22:46.724Z,39.89
2023-05-08T10:27:54.927Z,40.02
2023-05-08T10:32:58.902Z,39.79
2023-05-08T10:38:01.702Z,39.54
2023-05-08T10:43:07.585Z,39.28
2023-05-08T10:48:14.713Z,38.75
2023-05-08T10:53:20.625Z,38.63
2023-05-08T10:58:35.036Z,37.37
2023-05-08T11:03:40.190Z,37.85
2023-05-08T11:08:54.404Z,37.73
2023-05-08T11:14:00.781Z,38.04
2023-05-08T11:19:19.517Z,36.38
2023-05-08T11:24:22.323Z,37.11
2023-05-08T11:29:26.637Z,37.11
2023-05-08T11:34:48.816Z,36.70
2023-05-08T11:39:51.770Z,36.63
2023-05-08T11:45:03.432Z,36.67
2023-05-08T11:50:07.309Z,36.34
2023-05-08T11:55:11.223Z,36.97
2023-05-08T12:00:16.959Z,35.44
2023-05-08T12:05:27.544Z,35.79
2023-05-08T12:10:30.479Z,35.81
2023-05-08T12:15:34.698Z,35.16
2023-05-08T12:20:37.596Z,35.23
2023-05-08T12:25:40.676Z,35.35
2023-05-08T12:30:44.968Z,35.06
2023-05-08T12:35:47.830Z,36.18
2023-05-08T12:40:52.978Z,35.19
2023-05-08T12:45:57.236Z,35.50
2023-05-08T12:51:04.274Z,35.34
2023-05-08T12:56:08.150Z,35.43
2023-05-08T13:01:13.501Z,34.38
2023-05-08T13:06:22.675Z,35.75
2023-05-08T13:11:32.974Z,38.28
2023-05-08T13:16:44.712Z,37.68
2023-05-08T13:21:47.866Z,35.14
2023-05-08T13:26:50.626Z,37.51
2023-05-08T13:31:55.028Z,37.65
2023-05-08T13:36:57.848Z,37.80
2023-05-08T13:42:00.684Z,38.08
2023-05-08T13:47:05.010Z,38.11
2023-05-08T13:52:07.873Z,38.06
2023-05-08T13:57:10.735Z,38.24
2023-05-08T14:02:15.433Z,38.33
2023-05-08T14:07:18.489Z,38.44
2023-05-08T14:12:21.264Z,38.09
2023-05-08T14:17:25.616Z,38.69
2023-05-08T14:22:28.770Z,38.60
2023-05-08T14:27:31.605Z,38.45
2023-05-08T14:32:35.853Z,38.22
2023-05-08T14:37:38.691Z,38.15
2023-05-08T14:42:41.612Z,37.82
2023-05-08T14:47:46.327Z,38.16
2023-05-08T14:52:49.487Z,38.08
2023-05-08T14:57:52.406Z,38.47
2023-05-08T15:02:57.081Z,38.60
2023-05-08T15:08:01.476Z,38.27
2023-05-08T15:13:04.371Z,38.06
2023-05-08T15:18:08.639Z,38.73
2023-05-08T15:23:11.532Z,38.61
2023-05-08T15:28:14.428Z,38.66
2023-05-08T15:33:18.741Z,39.01
2023-05-08T15:38:21.469Z,39.24
2023-05-08T15:43:24.240Z,39.88
2023-05-08T15:48:28.431Z,39.57
2023-05-08T15:53:31.360Z,39.10
2023-05-08T15:58:36.552Z,39.06
2023-05-08T16:03:40.745Z,38.90
2023-05-08T16:08:43.989Z,39.22
2023-05-08T16:13:46.794Z,39.40
2023-05-08T16:18:50.947Z,40.08
2023-05-08T16:23:53.988Z,39.11
2023-05-08T16:28:56.828Z,37.64
2023-05-08T16:34:00.940Z,38.04
2023-05-08T16:39:04.025Z,37.96
2023-05-08T16:44:06.832Z,37.74
2023-05-08T16:49:11.038Z,35.49
2023-05-08T16:54:14.042Z,33.97
2023-05-08T16:59:16.986Z,35.01
2023-05-08T17:04:21.736Z,33.67
2023-05-08T17:09:25.314Z,31.00
2023-05-08T17:14:28.616Z,30.08
2023-05-08T17:19:32.956Z,29.50
2023-05-08T17:24:37.302Z,29.99
2023-05-08T17:29:40.424Z,29.88
2023-05-08T17:34:44.725Z,31.38
2023-05-08T17:39:47.592Z,32.46
2023-05-08T17:44:50.547Z,33.35
2023-05-08T17:49:54.680Z,33.80
2023-05-08T17:54:58.007Z,34.14
2023-05-08T18:00:00.828Z,34.57
2023-05-08T18:05:05.668Z,34.86
2023-05-08T18:10:09.693Z,35.01
2023-05-08T18:15:13.397Z,35.37
2023-05-08T18:20:17.644Z,35.45
2023-05-08T18:25:20.784Z,35.68
2023-05-08T18:30:23.912Z,36.00
2023-05-08T18:35:28.161Z,36.60
2023-05-08T18:40:31.299Z,36.79
2023-05-08T18:45:34.114Z,36.99
2023-05-08T18:50:38.492Z,37.00
2023-05-08T18:55:41.680Z,37.57
2023-05-08T19:00:45.261Z,37.68
2023-05-08T19:05:51.186Z,37.77
2023-05-08T19:10:54.049Z,38.09
2023-05-08T19:15:56.849Z,38.39
2023-05-08T19:21:02.317Z,38.50
2023-05-08T19:26:05.301Z,38.68
2023-05-08T19:31:08.347Z,38.57
2023-05-08T19:36:12.695Z,38.86
2023-05-08T19:41:17.187Z,38.96
2023-05-08T19:46:20.457Z,39.17
2023-05-08T19:51:25.131Z,39.05
2023-05-08T19:56:27.955Z,39.36
2023-05-08T20:01:30.972Z,39.28
2023-05-08T20:06:35.256Z,39.21
2023-05-08T20:11:38.123Z,39.53
2023-05-08T20:16:41.774Z,39.53
2023-05-08T20:21:46.850Z,39.72
2023-05-08T20:26:51.784Z,39.80
2023-05-08T20:31:54.918Z,39.78
2023-05-08T20:37:00.866Z,40.06
2023-05-08T20:42:03.686Z,39.88
2023-05-08T20:47:06.590Z,40.05
2023-05-08T20:52:10.773Z,39.98
2023-05-08T20:57:15.716Z,40.12
2023-05-08T21:02:18.609Z,40.26
2023-05-08T21:07:22.762Z,40.34
2023-05-08T21:12:25.743Z,40.28
2023-05-08T21:17:28.633Z,40.33
2023-05-08T21:22:34.051Z,40.47
2023-05-08T21:27:49.890Z,40.57
2023-05-08T21:32:52.835Z,40.38
2023-05-08T21:37:57.069Z,40.65
2023-05-08T21:43:00.050Z,40.76
2023-05-08T21:48:03.111Z,40.79
2023-05-08T21:53:07.428Z,40.78
2023-05-08T21:58:10.231Z,40.82
2023-05-08T22:03:13.148Z,40.86
2023-05-08T22:08:17.377Z,41.01
2023-05-08T22:13:20.358Z,41.20
2023-05-08T22:18:23.292Z,41.19
2023-05-08T22:23:27.400Z,41.31
2023-05-08T22:28:30.179Z,41.98
2023-05-08T22:33:33.933Z,41.93
2023-05-08T22:38:38.136Z,41.98
2023-05-08T22:43:40.871Z,42.28
2023-05-08T22:48:43.618Z,42.32
2023-05-08T22:53:48.243Z,42.36
2023-05-08T22:58:51.137Z,42.58
2023-05-08T23:03:54.389Z,42.76
2023-05-08T23:08:58.501Z,42.91
2023-05-08T23:14:01.292Z,42.72
2023-05-08T23:19:04.514Z,43.04
2023-05-08T23:24:09.178Z,42.95
2023-05-08T23:29:12.008Z,43.27
2023-05-08T23:34:14.804Z,43.53
2023-05-08T23:39:19.107Z,43.45
2023-05-08T23:44:21.919Z,43.75
2023-05-08T23:49:25.003Z,43.84
2023-05-08T23:54:29.074Z,44.12
2023-05-08T23:59:31.922Z,44.45
